Time;durP1;ratioP1;P1;durP2;ratioP2;P2;SDS_P1;SDS_P2;PMS_P1;PMS_P2;Temp;Humidity;BMP_temperature;BMP_pressure;BME280_temperature;BME280_humidity;BME280_pressure;Samples;Min_cycle;Max_cycle;Signal;HPM_P1;HPM_P2
2022/09/28 00:03:26;;;;;;;17.20;10.20;;;;;;;14.51;65.97;97403.09;226625;1249;139360;-67
2022/09/28 00:08:30;;;;;;;13.70;9.20;;;;;;;14.47;65.89;97392.30;226609;1241;139584;-67
2022/09/28 00:13:34;;;;;;;12.70;9.20;;;;;;;14.42;65.76;97383.67;226345;1232;140917;-68
2022/09/28 00:18:37;;;;;;;14.30;9.40;;;;;;;14.43;65.93;97383.00;226321;1243;139591;-67
2022/09/28 00:29:03;;;;;;;13.30;8.80;;;;;;;14.39;65.74;97379.38;226059;1240;139521;-67
2022/09/28 00:34:07;;;;;;;15.60;9.20;;;;;;;14.38;65.73;97378.91;227471;1238;139629;-66
2022/09/28 00:39:11;;;;;;;14.50;8.60;;;;;;;14.34;65.51;97377.41;226194;1240;139588;-65
2022/09/28 00:44:26;;;;;;;14.50;8.70;;;;;;;14.26;65.37;97383.77;226186;1252;139085;-64
2022/09/28 00:49:41;;;;;;;15.90;8.70;;;;;;;14.18;65.45;97391.68;226119;1245;139487;-64
2022/09/28 00:54:47;;;;;;;12.60;8.10;;;;;;;14.19;65.46;97392.15;226173;1241;139978;-64
2022/09/28 00:59:54;;;;;;;11.90;8.00;;;;;;;14.21;65.50;97386.08;226252;1236;139284;-64
2022/09/28 01:05:03;;;;;;;14.50;8.50;;;;;;;14.18;65.48;97382.39;227329;1242;139203;-65
2022/09/28 01:10:07;;;;;;;12.10;8.50;;;;;;;14.19;65.67;97380.34;227586;1233;138743;-64
2022/09/28 01:15:10;;;;;;;12.30;8.20;;;;;;;14.14;65.43;97376.54;226455;1238;139237;-64
2022/09/28 01:20:39;;;;;;;12.50;8.30;;;;;;;14.05;65.24;97372.23;226440;1247;138779;-70
2022/09/28 01:26:01;;;;;;;10.40;7.50;;;;;;;13.94;65.34;97375.25;227448;1237;140304;-68
2022/09/28 01:31:17;;;;;;;13.00;8.40;;;;;;;13.82;65.30;97374.00;226444;1242;139616;-68
2022/09/28 01:36:29;;;;;;;13.50;7.80;;;;;;;13.79;65.51;97378.77;226564;1241;142739;-67
2022/09/28 01:41:35;;;;;;;13.40;8.40;;;;;;;13.82;65.59;97379.83;227440;1234;140271;-67
2022/09/28 01:46:43;;;;;;;12.60;8.40;;;;;;;13.81;65.47;97377.70;226238;1237;140094;-67
2022/09/28 01:52:26;;;;;;;12.60;7.90;;;;;;;13.76;65.47;97380.66;226344;1244;139153;-67
2022/09/28 01:57:37;;;;;;;11.80;8.10;;;;;;;13.68;65.64;97387.69;226333;1244;140354;-69
2022/09/28 02:02:48;;;;;;;12.00;7.60;;;;;;;13.62;65.69;97396.31;226106;1243;139026;-67
2022/09/28 02:08:02;;;;;;;11.90;8.10;;;;;;;13.61;65.89;97397.39;226322;1242;139051;-61
2022/09/28 02:13:12;;;;;;;15.30;7.40;;;;;;;13.64;66.08;97398.16;226304;1248;139585;-62
2022/09/28 02:18:16;;;;;;;11.70;7.20;;;;;;;13.73;66.11;97405.36;226042;1242;140003;-62
2022/09/28 02:23:22;;;;;;;10.90;7.60;;;;;;;13.80;66.04;97406.84;226257;1239;139716;-64
2022/09/28 02:28:25;;;;;;;11.80;7.10;;;;;;;13.83;65.96;97408.11;226244;1251;140411;-65
2022/09/28 02:33:37;;;;;;;10.50;6.90;;;;;;;13.83;65.86;97406.89;227268;1247;139471;-65
2022/09/28 02:38:40;;;;;;;9.10;6.10;;;;;;;13.79;65.92;97410.67;225965;1244;139446;-65
2022/09/28 02:44:22;;;;;;;9.30;6.60;;;;;;;13.75;65.81;97414.33;226241;1241;139108;-73
2022/09/28 02:49:35;;;;;;;9.80;6.10;;;;;;;13.69;65.99;97422.39;225402;1241;139147;-66
2022/09/28 02:54:56;;;;;;;11.00;5.50;;;;;;;13.64;65.86;97422.52;227410;1227;140481;-67
2022/09/28 03:00:14;;;;;;;7.90;5.40;;;;;;;13.64;65.68;97421.45;226765;1240;140257;-69
2022/09/28 03:05:20;;;;;;;8.40;5.10;;;;;;;13.68;65.91;97419.84;226437;1235;139313;-70
2022/09/28 03:10:32;;;;;;;6.40;3.50;;;;;;;13.69;65.65;97416.65;227596;1234;139044;-67
2022/09/28 03:15:35;;;;;;;6.70;3.80;;;;;;;13.63;65.51;97417.16;226584;1247;138499;-69
2022/09/28 03:20:38;;;;;;;7.70;3.20;;;;;;;13.57;65.36;97416.47;226771;1250;139438;-66
2022/09/28 03:25:41;;;;;;;5.80;2.90;;;;;;;13.56;65.32;97412.98;226665;1238;139879;-67
2022/09/28 03:30:44;;;;;;;3.10;2.40;;;;;;;13.46;64.90;97413.42;226379;1243;138847;-70
2022/09/28 03:35:49;;;;;;;3.80;2.40;;;;;;;13.38;64.53;97414.58;226293;1240;139724;-69
2022/09/28 03:40:57;;;;;;;3.60;2.20;;;;;;;13.28;64.36;97410.10;226305;1253;138893;-68
2022/09/28 03:46:01;;;;;;;5.00;2.40;;;;;;;13.20;64.22;97411.70;227462;1238;140986;-68
2022/09/28 03:51:08;;;;;;;4.00;2.60;;;;;;;13.15;64.19;97409.60;226371;1234;139706;-68
2022/09/28 03:56:14;;;;;;;4.50;2.70;;;;;;;13.06;64.15;97417.73;226330;1233;140811;-69
2022/09/28 04:01:17;;;;;;;4.10;2.20;;;;;;;12.99;64.08;97429.84;226253;1244;139366;-69
2022/09/28 04:06:22;;;;;;;5.10;2.30;;;;;;;12.90;64.00;97427.69;226348;1245;139672;-66
2022/09/28 04:11:26;;;;;;;5.70;2.10;;;;;;;12.83;63.81;97426.98;226423;1237;138873;-68
2022/09/28 04:16:46;;;;;;;3.50;2.00;;;;;;;12.74;63.84;97426.02;226544;1234;139768;-67
2022/09/28 04:21:51;;;;;;;5.40;2.30;;;;;;;12.68;63.71;97426.10;226257;1246;138850;-67
2022/09/28 04:29:14;;;;;;;5.00;2.30;;;;;;;12.61;63.64;97425.37;226324;1250;139219;-68
2022/09/28 04:32:20;;;;;;;3.50;2.20;;;;;;;12.51;63.52;97425.02;226534;1245;138363;-65
2022/09/28 04:37:23;;;;;;;4.80;2.20;;;;;;;12.48;63.58;97429.45;226307;1249;139348;-65
2022/09/28 04:42:26;;;;;;;2.90;2.20;;;;;;;12.46;63.71;97435.09;227521;1234;139502;-66
2022/09/28 04:47:29;;;;;;;4.30;2.70;;;;;;;12.45;63.79;97436.84;226395;1240;138922;-67
2022/09/28 04:52:44;;;;;;;2.50;1.70;;;;;;;12.39;63.78;97438.69;226135;1240;139061;-67
2022/09/28 04:57:47;;;;;;;2.60;2.00;;;;;;;12.34;64.13;97445.88;226732;1239;138867;-70
2022/09/28 05:02:50;;;;;;;3.60;2.20;;;;;;;12.33;63.79;97445.67;226462;1244;139766;-69
2022/09/28 05:08:16;;;;;;;4.30;2.10;;;;;;;12.35;63.97;97453.48;227404;1227;139558;-68
2022/09/28 05:13:19;;;;;;;3.20;2.20;;;;;;;12.36;63.92;97453.00;226225;1241;139987;-69
2022/09/28 05:18:23;;;;;;;4.60;2.50;;;;;;;12.33;63.75;97455.56;225959;1248;139037;-68
2022/09/28 05:23:36;;;;;;;6.50;2.70;;;;;;;12.31;64.04;97462.36;227303;1234;140191;-66
2022/09/28 05:28:39;;;;;;;3.90;2.60;;;;;;;12.30;63.71;97455.64;227306;1235;139388;-67
2022/09/28 05:34:17;;;;;;;3.90;2.60;;;;;;;12.29;63.97;97456.31;227476;1230;140372;-66
2022/09/28 05:39:21;;;;;;;13.10;7.00;;;;;;;12.29;64.04;97453.07;226496;1243;138714;-65
2022/09/28 05:44:24;;;;;;;5.80;2.70;;;;;;;12.38;64.38;97452.45;226245;1233;140034;-67
2022/09/28 05:49:30;;;;;;;4.50;3.00;;;;;;;12.38;64.21;97454.36;226194;1241;140209;-67
2022/09/28 05:54:35;;;;;;;4.40;2.70;;;;;;;12.40;63.97;97457.05;225964;1237;140452;-66
2022/09/28 05:59:38;;;;;;;4.30;2.80;;;;;;;12.46;64.15;97459.00;227362;1241;139090;-67
2022/09/28 06:04:40;;;;;;;5.80;2.80;;;;;;;12.52;64.07;97464.63;226185;1245;139969;-70
2022/09/28 06:09:44;;;;;;;4.00;3.10;;;;;;;12.60;64.31;97467.27;227365;1241;139315;-69
2022/09/28 06:15:12;;;;;;;5.80;3.00;;;;;;;12.71;63.83;97466.73;227406;1234;139197;-69
2022/09/28 06:20:15;;;;;;;5.30;3.30;;;;;;;12.78;63.80;97466.05;226295;1244;138822;-69
2022/09/28 06:25:40;;;;;;;6.80;3.30;;;;;;;12.80;63.91;97463.70;226135;1248;140278;-65
2022/09/28 06:30:43;;;;;;;9.20;3.30;;;;;;;12.83;63.86;97465.05;226135;1245;139278;-66
2022/09/28 06:35:51;;;;;;;7.10;3.40;;;;;;;12.90;63.93;97464.15;226362;1236;138981;-71
2022/09/28 06:40:56;;;;;;;7.20;3.20;;;;;;;12.91;63.72;97462.98;226731;1241;138928;-66
2022/09/28 06:46:00;;;;;;;;;;;;;;;12.92;63.71;97469.70;226714;1238;139371;-64
2022/09/28 06:51:32;;;;;;;7.10;3.30;;;;;;;13.04;63.75;97459.80;227326;1234;125200;-64
2022/09/28 06:56:54;;;;;;;9.20;3.10;;;;;;;13.13;63.66;97450.01;226569;1247;138656;-65
2022/09/28 07:01:57;;;;;;;10.20;2.70;;;;;;;13.19;63.37;97439.44;226409;1236;138722;-63
2022/09/28 07:07:18;;;;;;;5.90;2.60;;;;;;;13.32;63.29;97441.89;227457;1240;139645;-63
2022/09/28 07:12:34;;;;;;;5.70;2.20;;;;;;;13.43;63.07;97451.52;226222;1235;139316;-64
2022/09/28 07:17:40;;;;;;;5.30;2.10;;;;;;;13.54;62.70;97460.04;226256;1235;139152;-64
2022/09/28 07:23:04;;;;;;;6.00;1.90;;;;;;;13.59;62.30;97468.72;227341;1234;138975;-67
2022/09/28 07:28:40;;;;;;;5.50;1.80;;;;;;;13.65;62.17;97463.93;226579;1237;138846;-64
2022/09/28 07:33:55;;;;;;;6.20;1.90;;;;;;;13.71;61.91;97465.65;227378;1234;231346;-63
2022/09/28 07:39:18;;;;;;;11.10;2.20;;;;;;;13.77;61.85;97458.67;227398;1226;139348;-63
2022/09/28 07:44:21;;;;;;;3.90;1.60;;;;;;;13.81;61.55;97458.45;227418;1225;138737;-67
2022/09/28 07:49:29;;;;;;;5.40;1.20;;;;;;;13.90;61.47;97463.01;226310;1240;138280;-68
2022/09/28 07:55:05;;;;;;;2.30;1.10;;;;;;;13.97;60.68;97459.65;226467;1241;138885;-70
2022/09/28 08:00:24;;;;;;;2.50;0.70;;;;;;;14.02;60.08;97460.27;226170;1251;138948;-68
2022/09/28 08:05:30;;;;;;;1.40;0.80;;;;;;;14.12;59.83;97457.02;226357;1237;138888;-68
2022/09/28 08:10:33;;;;;;;26.20;17.50;;;;;;;14.23;59.24;97458.07;226172;1243;140799;-70
2022/09/28 08:16:00;;;;;;;2.60;1.20;;;;;;;14.32;58.91;97454.91;225943;1238;138952;-68
2022/09/28 08:26:36;;;;;;;1.80;0.50;;;;;;;14.52;57.95;97457.34;226143;1243;139399;-68
2022/09/28 08:31:39;;;;;;;5.70;0.80;;;;;;;14.49;57.57;97461.65;227062;1229;138976;-68
2022/09/28 08:37:09;;;;;;;3.00;0.70;;;;;;;14.42;57.11;97456.67;227106;1233;139950;-68
2022/09/28 08:42:40;;;;;;;1.70;0.70;;;;;;;14.45;56.88;97453.27;226487;1241;139057;-69
2022/09/28 08:54:08;;;;;;;0.70;0.70;;;;;;;14.70;56.42;97443.60;227072;1228;139738;-69
2022/09/28 08:59:40;;;;;;;1.30;0.50;;;;;;;14.91;56.07;97438.24;226221;1244;138759;-70
2022/09/28 09:04:50;;;;;;;2.00;0.70;;;;;;;15.05;55.52;97439.95;226603;1237;138981;-68
2022/09/28 09:10:27;;;;;;;1.00;0.30;;;;;;;15.13;54.92;97443.38;226591;1240;138871;-67
2022/09/28 09:15:40;;;;;;;2.30;0.60;;;;;;;15.16;54.16;97448.63;226210;1240;138840;-67
2022/09/28 09:21:12;;;;;;;2.50;0.70;;;;;;;15.07;53.44;97454.30;226228;1243;138873;-68
2022/09/28 09:26:21;;;;;;;1.50;0.70;;;;;;;14.98;53.15;97454.64;227352;1233;140396;-68
2022/09/28 09:31:34;;;;;;;2.30;0.50;;;;;;;14.94;53.03;97444.14;226183;1243;139111;-67
2022/09/28 09:37:07;;;;;;;2.50;0.70;;;;;;;14.95;52.37;97453.13;227233;1230;138887;-66
2022/09/28 09:42:46;;;;;;;2.00;0.60;;;;;;;15.00;52.03;97448.38;226158;1234;138955;-67
2022/09/28 09:48:20;;;;;;;0.60;0.30;;;;;;;15.14;51.58;97452.58;226549;1237;152089;-68
2022/09/28 09:53:32;;;;;;;1.40;0.60;;;;;;;15.21;51.19;97459.47;226202;1250;139620;-68
2022/09/28 09:58:49;;;;;;;5.30;1.20;;;;;;;15.25;51.45;97459.17;226486;1227;138910;-68
2022/09/28 10:03:57;;;;;;;4.60;0.70;;;;;;;15.37;51.75;97453.50;226074;1243;139565;-68
2022/09/28 10:09:05;;;;;;;2.10;0.40;;;;;;;15.49;51.79;97446.36;227196;1242;139628;-68
2022/09/28 10:14:16;;;;;;;1.20;0.70;;;;;;;15.57;51.58;97431.25;226302;1241;139922;-68
2022/09/28 10:19:31;;;;;;;2.10;0.40;;;;;;;15.70;51.41;97427.95;227323;1234;141873;-68
2022/09/28 10:25:14;;;;;;;1.10;0.70;;;;;;;15.93;51.38;97424.22;226263;1237;139499;-68
2022/09/28 10:30:23;;;;;;;2.10;0.50;;;;;;;16.18;51.49;97415.00;226102;1238;139660;-69
2022/09/28 10:35:30;;;;;;;8.00;0.70;;;;;;;16.42;51.20;97417.42;226145;1242;140229;-69
2022/09/28 10:40:43;;;;;;;4.60;0.60;;;;;;;16.63;50.89;97418.02;227344;1229;138941;-69
2022/09/28 10:45:48;;;;;;;1.10;0.60;;;;;;;16.67;50.23;97416.84;227127;1234;140640;-69
2022/09/28 10:51:05;;;;;;;0.30;0.30;;;;;;;16.70;50.10;97408.39;226097;1243;139277;-69
2022/09/28 10:56:20;;;;;;;0.60;0.60;;;;;;;16.77;49.74;97406.23;226098;1243;139496;-68
2022/09/28 11:01:32;;;;;;;1.10;0.50;;;;;;;16.84;49.43;97401.16;226108;1240;139388;-68
2022/09/28 11:06:39;;;;;;;0.70;0.30;;;;;;;16.86;49.28;97388.45;226208;1249;138886;-69
2022/09/28 11:11:42;;;;;;;1.20;0.50;;;;;;;16.93;49.11;97381.14;226118;1249;138856;-69
2022/09/28 11:16:46;;;;;;;0.70;0.40;;;;;;;17.01;48.84;97383.45;227415;1235;138971;-69
2022/09/28 11:21:50;;;;;;;2.10;0.90;;;;;;;17.10;48.87;97370.52;226469;1237;139089;-66
2022/09/28 11:26:58;;;;;;;0.60;0.40;;;;;;;17.18;48.70;97359.21;226110;1243;139584;-68
2022/09/28 11:32:05;;;;;;;1.90;0.60;;;;;;;17.31;48.94;97347.19;226412;1238;139384;-69
2022/09/28 11:37:39;;;;;;;1.30;0.40;;;;;;;17.39;48.69;97350.56;226229;1242;139583;-67
2022/09/28 11:43:06;;;;;;;1.10;0.70;;;;;;;17.42;48.35;97348.42;226157;1236;138985;-69
2022/09/28 11:48:22;;;;;;;1.50;0.50;;;;;;;17.49;48.34;97341.44;227296;1233;139328;-68
2022/09/28 11:53:44;;;;;;;2.60;0.80;;;;;;;17.77;48.49;97328.23;226273;1246;139110;-70
2022/09/28 11:58:52;;;;;;;1.80;0.60;;;;;;;18.22;48.37;97323.27;226476;1249;139552;-69
2022/09/28 12:04:10;;;;;;;1.70;0.80;;;;;;;18.51;47.78;97326.53;226210;1243;139776;-66
2022/09/28 12:09:45;;;;;;;1.20;0.70;;;;;;;18.57;46.73;97322.71;226330;1240;139337;-68
2022/09/28 12:14:58;;;;;;;1.30;0.70;;;;;;;18.51;46.22;97320.23;227045;1242;138910;-67
2022/09/28 12:20:23;;;;;;;2.30;0.70;;;;;;;18.44;46.20;97300.16;226265;1249;140433;-66
2022/09/28 12:25:33;;;;;;;2.50;0.70;;;;;;;18.41;46.20;97292.79;226303;1241;139514;-66
2022/09/28 12:30:39;;;;;;;1.20;0.60;;;;;;;18.47;46.28;97289.72;227461;1230;139105;-66
2022/09/28 12:36:10;;;;;;;1.30;0.70;;;;;;;18.59;46.28;97289.45;226219;1241;139923;-68
2022/09/28 12:41:41;;;;;;;1.70;0.50;;;;;;;18.65;45.80;97290.34;226347;1241;138692;-65
2022/09/28 12:46:52;;;;;;;2.80;0.60;;;;;;;18.72;45.65;97290.64;227423;1231;138648;-65
2022/09/28 12:51:59;;;;;;;1.40;0.60;;;;;;;18.84;45.64;97284.04;226293;1243;138827;-68
2022/09/28 12:57:28;;;;;;;2.90;0.50;;;;;;;19.03;45.41;97277.20;227299;1236;138838;-66
2022/09/28 13:03:44;;;;;;;3.20;0.80;;;;;;;19.36;45.46;97264.27;226330;1243;139604;-67
2022/09/28 13:09:06;;;;;;;1.40;0.80;;;;;;;19.87;45.35;97261.66;225013;1242;139125;-66
2022/09/28 13:14:30;;;;;;;1.80;0.70;;;;;;;20.36;44.83;97249.17;227209;1229;138903;-68
2022/09/28 13:19:51;;;;;;;1.70;0.70;;;;;;;20.91;44.12;97254.98;226724;1242;139276;-66
2022/09/28 13:25:00;;;;;;;3.30;0.60;;;;;;;21.25;43.36;97252.00;226410;1241;139024;-69
2022/09/28 13:30:07;;;;;;;1.90;0.50;;;;;;;21.02;42.83;97254.60;227418;1232;138825;-66
2022/09/28 13:35:18;;;;;;;2.40;0.60;;;;;;;20.77;42.54;97250.09;227563;1233;138961;-66
2022/09/28 13:41:00;;;;;;;2.00;0.40;;;;;;;20.59;42.38;97246.54;226361;1241;139795;-68
2022/09/28 13:46:20;;;;;;;1.50;0.60;;;;;;;20.30;42.16;97248.51;226534;1249;139073;-66
2022/09/28 13:51:38;;;;;;;3.60;0.90;;;;;;;20.06;42.28;97243.98;227477;1226;138893;-67
2022/09/28 13:57:12;;;;;;;1.60;0.70;;;;;;;19.86;42.54;97235.06;226395;1237;139108;-66
2022/09/28 14:02:40;;;;;;;2.00;0.80;;;;;;;19.60;42.58;97247.98;226334;1244;138871;-68
2022/09/28 14:08:07;;;;;;;2.20;0.80;;;;;;;19.41;42.76;97263.27;227198;1233;140219;-66
2022/09/28 14:13:11;;;;;;;4.70;0.90;;;;;;;19.27;42.92;97264.85;226413;1237;139249;-66
2022/09/28 14:18:33;;;;;;;4.60;0.90;;;;;;;19.16;43.12;97269.48;226240;1240;138733;-69
2022/09/28 14:24:13;;;;;;;3.30;0.90;;;;;;;19.07;43.39;97273.13;226138;1240;139522;-69
2022/09/28 14:29:32;;;;;;;4.40;1.00;;;;;;;18.98;43.52;97269.96;227188;1234;139328;-67
2022/09/28 14:34:42;;;;;;;3.20;0.70;;;;;;;18.87;43.67;97268.95;226295;1243;140019;-68
2022/09/28 14:45:10;;;;;;;2.30;1.00;;;;;;;18.69;43.75;97246.89;227190;1228;141477;-66
2022/09/28 14:50:19;;;;;;;4.40;0.80;;;;;;;18.67;43.85;97244.73;226395;1249;139819;-67
2022/09/28 14:55:30;;;;;;;1.70;0.60;;;;;;;18.65;43.87;97231.60;226437;1249;139322;-68
2022/09/28 15:00:33;;;;;;;3.30;0.90;;;;;;;18.56;44.17;97223.76;226335;1244;139769;-67
2022/09/28 15:05:48;;;;;;;5.40;1.70;;;;;;;18.48;44.62;97229.93;226168;1244;139097;-71
2022/09/28 15:10:54;;;;;;;4.70;1.80;;;;;;;18.62;47.85;97231.08;227427;1241;139354;-68
2022/09/28 15:16:04;;;;;;;5.70;1.70;;;;;;;18.60;46.44;97234.24;226365;1234;139388;-69
2022/09/28 15:21:07;;;;;;;6.20;1.20;;;;;;;18.45;45.96;97244.85;226142;1248;140655;-70
2022/09/28 15:26:31;;;;;;;5.10;1.20;;;;;;;18.32;46.05;97250.82;226134;1243;139503;-68
2022/09/28 15:31:35;;;;;;;5.90;1.30;;;;;;;18.19;46.55;97239.22;226450;1245;139052;-70
2022/09/28 15:36:40;;;;;;;215.40;176.70;;;;;;;18.00;47.25;97253.38;227363;1233;139107;-69
2022/09/28 15:41:47;;;;;;;20.90;13.00;;;;;;;17.84;48.48;97247.31;226058;1244;141565;-70
2022/09/28 15:47:25;;;;;;;4.50;2.50;;;;;;;17.70;48.90;97250.14;226315;1241;139616;-68
2022/09/28 15:52:45;;;;;;;8.60;2.00;;;;;;;17.60;49.32;97247.02;226423;1238;139086;-69
2022/09/28 15:57:49;;;;;;;5.40;1.80;;;;;;;17.57;49.46;97244.08;227318;1242;139814;-69
2022/09/28 16:03:05;;;;;;;4.70;1.40;;;;;;;17.53;49.39;97240.24;226397;1241;139108;-68
2022/09/28 16:08:23;;;;;;;7.90;1.80;;;;;;;17.53;49.04;97241.24;227384;1228;140365;-69
2022/09/28 16:13:26;;;;;;;4.00;1.40;;;;;;;17.54;48.77;97242.45;227335;1235;138935;-70
2022/09/28 16:18:31;;;;;;;3.20;1.40;;;;;;;17.54;48.57;97238.89;227267;1236;138813;-69
2022/09/28 16:23:35;;;;;;;1.80;1.00;;;;;;;17.54;48.44;97244.40;226155;1242;139929;-69
2022/09/28 16:28:38;;;;;;;3.20;1.00;;;;;;;17.53;48.04;97240.73;227491;1232;139269;-68
2022/09/28 16:33:52;;;;;;;3.10;1.10;;;;;;;17.53;47.88;97241.98;226516;1247;139494;-67
2022/09/28 16:38:56;;;;;;;3.40;1.30;;;;;;;17.52;47.70;97245.53;226287;1245;138848;-67
2022/09/28 16:44:01;;;;;;;2.50;1.10;;;;;;;17.48;47.46;97243.81;226109;1242;138877;-69
2022/09/28 16:49:05;;;;;;;2.40;1.30;;;;;;;17.46;47.42;97244.15;226389;1240;139258;-68
2022/09/28 16:59:39;;;;;;;1.50;1.10;;;;;;;17.42;47.48;97247.97;227378;1241;138829;-69
2022/09/28 17:04:42;;;;;;;1.80;1.10;;;;;;;17.41;47.45;97252.92;226360;1242;138510;-68
2022/09/28 17:09:49;;;;;;;1.70;1.00;;;;;;;17.40;47.47;97246.95;226112;1244;139054;-69
2022/09/28 17:14:52;;;;;;;3.80;1.50;;;;;;;17.39;47.51;97246.15;226268;1242;139786;-69
2022/09/28 17:19:55;;;;;;;3.00;1.20;;;;;;;17.38;47.62;97249.55;226377;1247;140116;-67
2022/09/28 17:24:58;;;;;;;1.90;1.20;;;;;;;17.37;47.54;97245.91;226518;1241;139351;-68
2022/09/28 17:30:01;;;;;;;5.40;1.50;;;;;;;17.36;47.61;97249.08;227273;1235;138858;-68
2022/09/28 17:35:07;;;;;;;2.70;1.30;;;;;;;17.35;47.71;97256.37;226440;1247;161938;-69
2022/09/28 17:40:28;;;;;;;2.90;1.10;;;;;;;17.33;47.71;97254.24;226364;1248;138820;-69
2022/09/28 17:45:37;;;;;;;3.60;1.10;;;;;;;17.31;47.83;97253.17;226438;1247;139357;-68
2022/09/28 17:50:42;;;;;;;5.40;1.70;;;;;;;17.32;47.95;97256.77;227396;1234;138666;-68
2022/09/28 17:55:48;;;;;;;2.20;1.20;;;;;;;17.32;48.19;97262.15;226225;1241;138869;-69
2022/09/28 18:00:51;;;;;;;2.50;1.40;;;;;;;17.30;48.17;97262.51;226428;1247;139070;-73
2022/09/28 18:06:03;;;;;;;4.10;1.70;;;;;;;17.28;48.43;97270.81;226257;1241;139629;-68
2022/09/28 18:11:07;;;;;;;3.20;1.60;;;;;;;17.28;48.41;97280.63;226318;1240;138594;-69
2022/09/28 18:16:10;;;;;;;6.30;2.10;;;;;;;17.25;48.53;97287.17;227383;1234;138961;-71
2022/09/28 18:21:13;;;;;;;6.20;1.80;;;;;;;17.25;48.62;97290.23;226210;1245;138883;-70
2022/09/28 18:26:19;;;;;;;3.30;2.00;;;;;;;17.24;48.69;97293.45;226629;1241;138875;-69
2022/09/28 18:31:22;;;;;;;3.30;2.10;;;;;;;17.20;49.03;97296.83;226375;1238;141836;-70
2022/09/28 18:36:34;;;;;;;6.50;2.00;;;;;;;17.18;49.20;97294.89;225985;1243;139566;-68
2022/09/28 18:41:37;;;;;;;4.30;2.10;;;;;;;17.17;49.19;97293.39;227110;1248;138888;-66
2022/09/28 18:46:41;;;;;;;6.80;2.10;;;;;;;17.18;49.49;97300.51;227525;1233;138816;-66
2022/09/28 18:51:44;;;;;;;3.20;2.30;;;;;;;17.18;49.40;97302.42;226475;1254;140097;-64
2022/09/28 18:56:49;;;;;;;5.00;1.90;;;;;;;17.16;49.60;97312.69;226574;1238;140605;-65
2022/09/28 19:01:52;;;;;;;3.70;2.00;;;;;;;17.17;49.67;97319.27;227350;1233;139452;-68
2022/09/28 19:06:55;;;;;;;5.60;2.20;;;;;;;17.14;49.82;97328.29;227369;1234;139633;-71
2022/09/28 19:11:58;;;;;;;5.20;2.00;;;;;;;17.13;49.79;97329.76;226349;1238;139434;-66
2022/09/28 19:17:01;;;;;;;4.40;2.20;;;;;;;17.13;49.96;97336.74;227422;1240;140247;-65
2022/09/28 19:22:04;;;;;;;3.20;1.90;;;;;;;17.11;50.06;97338.32;226595;1234;139016;-64
2022/09/28 19:27:07;;;;;;;3.70;2.10;;;;;;;17.11;50.05;97341.26;227429;1226;138872;-66
2022/09/28 19:32:11;;;;;;;2.80;1.90;;;;;;;17.07;50.16;97341.73;226355;1243;139183;-65
2022/09/28 19:37:14;;;;;;;4.30;2.20;;;;;;;17.02;50.45;97341.85;226351;1241;139010;-65
2022/09/28 19:42:17;;;;;;;3.50;2.00;;;;;;;17.00;50.40;97344.56;226268;1241;139242;-66
2022/09/28 19:47:20;;;;;;;3.10;1.90;;;;;;;16.99;50.49;97352.77;226134;1242;139595;-64
2022/09/28 19:52:23;;;;;;;4.30;1.90;;;;;;;16.97;50.72;97352.33;226165;1241;141194;-64
2022/09/28 19:57:31;;;;;;;3.90;2.00;;;;;;;16.98;50.91;97357.92;227413;1237;140090;-65
2022/09/28 20:02:35;;;;;;;2.00;1.60;;;;;;;16.98;51.13;97360.23;226576;1233;139363;-65
2022/09/28 20:07:38;;;;;;;2.80;1.90;;;;;;;16.95;51.39;97363.82;226587;1240;139435;-66
2022/09/28 20:12:41;;;;;;;3.20;1.80;;;;;;;16.89;51.55;97364.92;226188;1240;138863;-66
2022/09/28 20:17:44;;;;;;;3.10;1.70;;;;;;;16.82;52.08;97371.11;227351;1243;139515;-66
2022/09/28 20:22:47;;;;;;;2.70;1.50;;;;;;;16.76;52.10;97376.02;226758;1249;139909;-62
2022/09/28 20:27:50;;;;;;;4.50;2.10;;;;;;;16.70;52.59;97379.36;226532;1241;139938;-63
2022/09/28 20:32:53;;;;;;;5.90;2.00;;;;;;;16.64;52.85;97389.43;227132;1238;138948;-63
2022/09/28 20:37:58;;;;;;;2.50;1.70;;;;;;;16.63;53.20;97412.05;227424;1233;139164;-64
2022/09/28 20:43:01;;;;;;;4.30;2.50;;;;;;;16.60;53.53;97418.35;226336;1234;139113;-63
2022/09/28 20:48:05;;;;;;;3.60;2.00;;;;;;;16.57;53.70;97433.16;226404;1247;141543;-63
2022/09/28 20:53:08;;;;;;;3.20;2.20;;;;;;;16.52;54.09;97436.36;226795;1241;138930;-63
2022/09/28 20:58:11;;;;;;;3.90;2.30;;;;;;;16.49;54.27;97439.93;226603;1241;139061;-63
2022/09/28 21:03:13;;;;;;;4.40;2.00;;;;;;;16.45;54.57;97446.19;226526;1242;138954;-63
2022/09/28 21:08:16;;;;;;;2.90;1.90;;;;;;;16.38;54.72;97444.76;226354;1241;140742;-63
2022/09/28 21:13:21;;;;;;;4.70;2.10;;;;;;;16.32;55.11;97443.30;226672;1240;138970;-67
2022/09/28 21:18:24;;;;;;;3.80;2.00;;;;;;;16.26;55.40;97436.96;226333;1237;140092;-69
2022/09/28 21:23:27;;;;;;;3.40;2.20;;;;;;;16.21;55.87;97434.33;227529;1233;138950;-67
2022/09/28 21:28:31;;;;;;;3.50;2.20;;;;;;;16.17;56.11;97426.70;227497;1234;138262;-67
2022/09/28 21:33:34;;;;;;;2.00;1.70;;;;;;;16.13;56.37;97430.36;226290;1237;139430;-68
2022/09/28 21:38:36;;;;;;;3.50;2.00;;;;;;;16.09;56.68;97433.00;226125;1244;139724;-67
2022/09/28 21:43:39;;;;;;;3.10;1.90;;;;;;;16.03;56.90;97436.83;227293;1234;139896;-66
2022/09/28 21:48:42;;;;;;;2.30;1.80;;;;;;;16.00;57.07;97438.10;227257;1236;139169;-64
2022/09/28 21:53:47;;;;;;;4.00;2.00;;;;;;;15.96;57.17;97443.88;226274;1239;139385;-64
2022/09/28 21:58:50;;;;;;;2.40;1.80;;;;;;;15.96;57.43;97444.80;226632;1244;138530;-64
2022/09/28 22:03:54;;;;;;;2.40;1.70;;;;;;;15.95;57.77;97447.42;226662;1240;138895;-67
2022/09/28 22:08:57;;;;;;;4.50;1.90;;;;;;;15.93;57.89;97454.51;227468;1227;138868;-66
2022/09/28 22:14:00;;;;;;;2.40;1.70;;;;;;;15.90;58.19;97458.20;227466;1235;139773;-66
2022/09/28 22:19:03;;;;;;;3.80;1.80;;;;;;;15.88;58.39;97465.90;227381;1242;139483;-65
2022/09/28 22:24:06;;;;;;;2.60;1.60;;;;;;;15.84;58.63;97473.23;226625;1248;140593;-64
2022/09/28 22:29:09;;;;;;;4.70;1.70;;;;;;;15.80;58.94;97483.02;226582;1239;139067;-66
2022/09/28 22:34:12;;;;;;;3.50;1.90;;;;;;;15.75;59.10;97492.63;227377;1242;139364;-66
2022/09/28 22:39:15;;;;;;;6.50;1.80;;;;;;;15.74;59.66;97498.69;226259;1250;139777;-67
2022/09/28 22:44:18;;;;;;;3.30;2.00;;;;;;;15.77;59.86;97505.20;226456;1246;139439;-67
2022/09/28 22:49:23;;;;;;;3.90;2.40;;;;;;;15.75;60.18;97502.87;226626;1241;139122;-64
2022/09/28 22:54:26;;;;;;;4.70;2.60;;;;;;;15.73;60.39;97505.05;226714;1249;138856;-64
2022/09/28 22:59:29;;;;;;;4.10;1.90;;;;;;;15.72;60.52;97507.33;227583;1234;138972;-70
2022/09/28 23:04:32;;;;;;;2.30;1.80;;;;;;;15.71;60.55;97501.94;226503;1241;139338;-72
2022/09/28 23:09:35;;;;;;;3.40;2.20;;;;;;;15.65;60.70;97499.80;226663;1247;139114;-68
2022/09/28 23:14:38;;;;;;;3.40;2.20;;;;;;;15.61;60.89;97507.02;226657;1241;144199;-70
2022/09/28 23:19:41;;;;;;;2.90;2.10;;;;;;;15.63;61.23;97515.90;226566;1241;139497;-68
2022/09/28 23:24:44;;;;;;;2.50;1.50;;;;;;;15.70;61.25;97510.42;226499;1236;140055;-71
2022/09/28 23:29:47;;;;;;;3.40;2.10;;;;;;;15.71;61.25;97500.66;227413;1228;139431;-70
2022/09/28 23:34:50;;;;;;;2.40;1.80;;;;;;;15.65;61.31;97507.66;226397;1244;139703;-69
2022/09/28 23:39:53;;;;;;;4.90;1.90;;;;;;;15.59;61.50;97523.14;226642;1241;139473;-72
2022/09/28 23:44:56;;;;;;;3.70;1.90;;;;;;;15.58;61.83;97523.77;226523;1241;139745;-70
2022/09/28 23:49:59;;;;;;;4.90;2.10;;;;;;;15.51;61.83;97528.61;226233;1234;139376;-68
2022/09/28 23:55:02;;;;;;;4.40;2.20;;;;;;;15.49;62.17;97526.95;227404;1241;139181;-67
